GEC8222 EDDF-MMMY
Flight info
| Callsign | GEC8222 |
|---|---|
| Flight time | N/A |
| Altitude | 32000 |
| Route | OBOKA3D OBOKA Z28 DIBIR DCT BUDIP DCT RAVLO Y70 OTBED DCT ABLUC/N0478F340 DCT OZRAT DCT WETFI DCT REVNU DCT NETKI DCT RESNO/M083F340 DCT 55N020W 55N030W 55N040W 54N050W DCT NEEKO/N0482F360 N624C ANATI DCT DICEN Q848 KARIT DCT FNT DCT JOT/N0468F380 DCT IRK DCT BUM DCT TUL J25 FUZ J131 EDNAS/N0476F390 J131 SAT/N0472F380 J21 LRD J22 NLD UJ40 NOTAL NOTAL1A |
| Aircraft | B77L/H-SDE2E3FGHIJ1J3J4J5M1P2RWXYZ/LB1D1 |
Departure
| Time | N/A |
|---|---|
| Airport | Frankfurt Main Airport (EDDF) |
Arrival
| Time | 2026-04-21 20:10 |
|---|---|
| Airport | Monterrey International Airport (MMMY) |
| Time | Latitude | Longitude | Altitude | Speed | Heading |
|---|---|---|---|---|---|
| 2026-04-21 17:35 | 39.87382 | -92.86557 | 38040 ft | 486 kts | 225° |
| 2026-04-21 17:35 | 39.84744 | -92.89312 | 38048 ft | 486 kts | 225° |
| 2026-04-21 17:35 | 39.79473 | -92.94807 | 38043 ft | 486 kts | 225° |
| 2026-04-21 17:36 | 39.74188 | -93.00302 | 38044 ft | 486 kts | 225° |
| 2026-04-21 17:36 | 39.68917 | -93.05770 | 38042 ft | 486 kts | 225° |
| 2026-04-21 17:37 | 39.63633 | -93.11239 | 38046 ft | 486 kts | 225° |
| 2026-04-21 17:37 | 39.58347 | -93.16699 | 38048 ft | 485 kts | 224° |
| 2026-04-21 17:38 | 39.53064 | -93.22146 | 38053 ft | 485 kts | 224° |
| 2026-04-21 17:38 | 39.47778 | -93.27585 | 38047 ft | 485 kts | 224° |
| 2026-04-21 17:39 | 39.43346 | -93.32136 | 38061 ft | 485 kts | 224° |
| 2026-04-21 17:39 | 39.38094 | -93.37520 | 38057 ft | 485 kts | 224° |
| 2026-04-21 17:40 | 39.32803 | -93.42934 | 38069 ft | 485 kts | 224° |
| 2026-04-21 17:40 | 39.27508 | -93.48340 | 38067 ft | 486 kts | 224° |
| 2026-04-21 17:41 | 39.22205 | -93.53744 | 38071 ft | 485 kts | 224° |
| 2026-04-21 17:41 | 39.16900 | -93.59140 | 38070 ft | 486 kts | 224° |
| 2026-04-21 17:42 | 39.11591 | -93.64528 | 38073 ft | 486 kts | 224° |
| 2026-04-21 17:42 | 39.06275 | -93.69914 | 38073 ft | 486 kts | 223° |
| 2026-04-21 17:43 | 39.00957 | -93.75290 | 38095 ft | 486 kts | 223° |
| 2026-04-21 17:43 | 38.95630 | -93.80666 | 38106 ft | 487 kts | 223° |
| 2026-04-21 17:44 | 38.90280 | -93.86056 | 38109 ft | 493 kts | 222° |
| 2026-04-21 17:44 | 38.84837 | -93.91530 | 38110 ft | 499 kts | 222° |
| 2026-04-21 17:45 | 38.79363 | -93.97017 | 38099 ft | 499 kts | 222° |
| 2026-04-21 17:45 | 38.73887 | -94.02496 | 38100 ft | 499 kts | 222° |
| 2026-04-21 17:46 | 38.68419 | -94.07958 | 38112 ft | 498 kts | 221° |
| 2026-04-21 17:46 | 38.62962 | -94.13399 | 38120 ft | 497 kts | 221° |
| 2026-04-21 17:47 | 38.57501 | -94.18834 | 38126 ft | 496 kts | 221° |
| 2026-04-21 17:47 | 38.52060 | -94.24238 | 38129 ft | 496 kts | 221° |
| 2026-04-21 17:48 | 38.46615 | -94.29636 | 38126 ft | 495 kts | 221° |
| 2026-04-21 17:48 | 38.41173 | -94.35020 | 38124 ft | 495 kts | 221° |
| 2026-04-21 17:49 | 38.35733 | -94.40392 | 38132 ft | 495 kts | 221° |
| 2026-04-21 17:49 | 38.30286 | -94.45762 | 38111 ft | 495 kts | 221° |
| 2026-04-21 17:50 | 38.24544 | -94.50662 | 38097 ft | 500 kts | 210° |
| 2026-04-21 17:50 | 38.18367 | -94.54609 | 38122 ft | 500 kts | 209° |
| 2026-04-21 17:51 | 38.12135 | -94.58532 | 38131 ft | 500 kts | 209° |
| 2026-04-21 17:51 | 38.05915 | -94.62491 | 38133 ft | 500 kts | 209° |
| 2026-04-21 17:52 | 37.99712 | -94.66466 | 38135 ft | 499 kts | 209° |
| 2026-04-21 17:52 | 37.93520 | -94.70434 | 38153 ft | 499 kts | 209° |
| 2026-04-21 17:53 | 37.87331 | -94.74389 | 38151 ft | 498 kts | 209° |
| 2026-04-21 17:53 | 37.81156 | -94.78327 | 38153 ft | 497 kts | 209° |
| 2026-04-21 17:54 | 37.74984 | -94.82255 | 38156 ft | 496 kts | 209° |
| 2026-04-21 17:54 | 37.68834 | -94.86162 | 38151 ft | 495 kts | 209° |
| 2026-04-21 17:55 | 37.62680 | -94.90063 | 38154 ft | 494 kts | 209° |
| 2026-04-21 17:55 | 37.56553 | -94.93941 | 38160 ft | 493 kts | 209° |
| 2026-04-21 17:56 | 37.50419 | -94.97815 | 38158 ft | 492 kts | 209° |
| 2026-04-21 17:56 | 37.44307 | -95.01668 | 38163 ft | 491 kts | 209° |
| 2026-04-21 17:57 | 37.38192 | -95.05516 | 38162 ft | 491 kts | 209° |
| 2026-04-21 17:57 | 37.32089 | -95.09351 | 38162 ft | 490 kts | 209° |
| 2026-04-21 17:58 | 37.26039 | -95.13144 | 38161 ft | 489 kts | 209° |
| 2026-04-21 17:58 | 37.19960 | -95.16949 | 38166 ft | 488 kts | 209° |
| 2026-04-21 17:59 | 37.13888 | -95.20743 | 38169 ft | 487 kts | 209° |
| 2026-04-21 17:59 | 37.07832 | -95.24520 | 38172 ft | 486 kts | 209° |
| 2026-04-21 18:00 | 37.01781 | -95.28287 | 38166 ft | 485 kts | 209° |
| 2026-04-21 18:00 | 36.95740 | -95.32040 | 38173 ft | 484 kts | 209° |
| 2026-04-21 18:01 | 36.89708 | -95.35783 | 38167 ft | 484 kts | 209° |
| 2026-04-21 18:01 | 36.83687 | -95.39511 | 38181 ft | 483 kts | 209° |
| 2026-04-21 18:02 | 36.77667 | -95.43232 | 38175 ft | 482 kts | 209° |
| 2026-04-21 18:02 | 36.71664 | -95.46937 | 38183 ft | 481 kts | 209° |
| 2026-04-21 18:03 | 36.65669 | -95.50630 | 38185 ft | 480 kts | 209° |
| 2026-04-21 18:03 | 36.59677 | -95.54315 | 38188 ft | 480 kts | 209° |
| 2026-04-21 18:04 | 36.53699 | -95.57984 | 38213 ft | 479 kts | 209° |
| 2026-04-21 18:04 | 36.47721 | -95.61648 | 38209 ft | 478 kts | 209° |
| 2026-04-21 18:05 | 36.41760 | -95.65294 | 38214 ft | 477 kts | 209° |
| 2026-04-21 18:05 | 36.35810 | -95.68928 | 38209 ft | 477 kts | 209° |
| 2026-04-21 18:06 | 36.29862 | -95.72556 | 38209 ft | 476 kts | 208° |
| 2026-04-21 18:06 | 36.23918 | -95.76175 | 38205 ft | 475 kts | 208° |
| 2026-04-21 18:07 | 36.17910 | -95.79629 | 38214 ft | 477 kts | 203° |
| 2026-04-21 18:07 | 36.11654 | -95.82376 | 38208 ft | 477 kts | 201° |
| 2026-04-21 18:08 | 36.05377 | -95.85055 | 38209 ft | 477 kts | 202° |
| 2026-04-21 18:08 | 35.99112 | -95.87761 | 38213 ft | 477 kts | 202° |
| 2026-04-21 18:09 | 35.93238 | -95.90320 | 38213 ft | 477 kts | 202° |
| 2026-04-21 18:09 | 35.86985 | -95.93046 | 38208 ft | 476 kts | 202° |
| 2026-04-21 18:10 | 35.80736 | -95.95765 | 38235 ft | 476 kts | 202° |
| 2026-04-21 18:10 | 35.74494 | -95.98475 | 38239 ft | 476 kts | 202° |
| 2026-04-21 18:11 | 35.68209 | -96.01198 | 38242 ft | 475 kts | 202° |
| 2026-04-21 18:11 | 35.62022 | -96.03874 | 38238 ft | 475 kts | 202° |
| 2026-04-21 18:12 | 35.55786 | -96.06568 | 38232 ft | 475 kts | 202° |
| 2026-04-21 18:12 | 35.49552 | -96.09256 | 38227 ft | 474 kts | 202° |
| 2026-04-21 18:13 | 35.43330 | -96.11934 | 38224 ft | 474 kts | 202° |
| 2026-04-21 18:13 | 35.37127 | -96.14601 | 38222 ft | 473 kts | 202° |
| 2026-04-21 18:14 | 35.27807 | -96.18599 | 38224 ft | 472 kts | 202° |
| 2026-04-21 18:15 | 35.21614 | -96.21250 | 38229 ft | 472 kts | 202° |
| 2026-04-21 18:15 | 35.15422 | -96.23893 | 38231 ft | 471 kts | 202° |
| 2026-04-21 18:16 | 35.09247 | -96.26523 | 38230 ft | 469 kts | 202° |
| 2026-04-21 18:16 | 35.03083 | -96.29144 | 38239 ft | 468 kts | 202° |
| 2026-04-21 18:17 | 34.96940 | -96.31753 | 38239 ft | 467 kts | 202° |
| 2026-04-21 18:17 | 34.90815 | -96.34352 | 38245 ft | 466 kts | 202° |
| 2026-04-21 18:18 | 34.84698 | -96.36942 | 38236 ft | 465 kts | 202° |
| 2026-04-21 18:18 | 34.78596 | -96.39522 | 38246 ft | 464 kts | 202° |
| 2026-04-21 18:19 | 34.72505 | -96.42094 | 38242 ft | 463 kts | 202° |
| 2026-04-21 18:19 | 34.66422 | -96.44658 | 38241 ft | 462 kts | 202° |
| 2026-04-21 18:20 | 34.60353 | -96.47213 | 38247 ft | 461 kts | 202° |
| 2026-04-21 18:20 | 34.54288 | -96.49762 | 38246 ft | 461 kts | 202° |
| 2026-04-21 18:21 | 34.48229 | -96.52308 | 38246 ft | 461 kts | 202° |
| 2026-04-21 18:21 | 34.42176 | -96.54848 | 38263 ft | 461 kts | 202° |
| 2026-04-21 18:22 | 34.36091 | -96.57397 | 38243 ft | 463 kts | 202° |
| 2026-04-21 18:22 | 34.30006 | -96.59942 | 38239 ft | 462 kts | 202° |
| 2026-04-21 18:23 | 34.23945 | -96.62473 | 38251 ft | 461 kts | 202° |
| 2026-04-21 18:23 | 34.17872 | -96.65006 | 38255 ft | 461 kts | 202° |
| 2026-04-21 18:24 | 34.11807 | -96.67530 | 38252 ft | 461 kts | 202° |
| 2026-04-21 18:24 | 34.05752 | -96.70047 | 38256 ft | 459 kts | 202° |
| 2026-04-21 18:25 | 33.99728 | -96.72548 | 38258 ft | 458 kts | 202° |
| 2026-04-21 18:25 | 33.93703 | -96.75045 | 38256 ft | 457 kts | 202° |
| 2026-04-21 18:26 | 33.87688 | -96.77535 | 38264 ft | 457 kts | 202° |
| 2026-04-21 18:26 | 33.81676 | -96.80019 | 38266 ft | 457 kts | 202° |
| 2026-04-21 18:27 | 33.75706 | -96.82483 | 38272 ft | 457 kts | 203° |
| 2026-04-21 18:27 | 33.69680 | -96.84965 | 38265 ft | 457 kts | 203° |
| 2026-04-21 18:28 | 33.63659 | -96.87442 | 38266 ft | 458 kts | 203° |
| 2026-04-21 18:28 | 33.57628 | -96.89920 | 38261 ft | 458 kts | 203° |
| 2026-04-21 18:29 | 33.51588 | -96.92397 | 38249 ft | 459 kts | 203° |
| 2026-04-21 18:29 | 33.45550 | -96.94870 | 38244 ft | 459 kts | 203° |
| 2026-04-21 18:30 | 33.39508 | -96.97341 | 38243 ft | 459 kts | 203° |
| 2026-04-21 18:30 | 33.33471 | -96.99806 | 38233 ft | 459 kts | 203° |
| 2026-04-21 18:31 | 33.27426 | -97.02271 | 38245 ft | 459 kts | 204° |
| 2026-04-21 18:31 | 33.21382 | -97.04732 | 38242 ft | 459 kts | 204° |
| 2026-04-21 18:32 | 33.15337 | -97.07190 | 38244 ft | 459 kts | 204° |
| 2026-04-21 18:32 | 33.09276 | -97.09652 | 38234 ft | 460 kts | 204° |
| 2026-04-21 18:33 | 33.03216 | -97.12108 | 38232 ft | 460 kts | 204° |
| 2026-04-21 18:33 | 32.97164 | -97.14559 | 38236 ft | 459 kts | 204° |
| 2026-04-21 18:34 | 32.91139 | -97.17058 | 38233 ft | 457 kts | 207° |
| 2026-04-21 18:34 | 32.85523 | -97.20473 | 38241 ft | 450 kts | 218° |
| 2026-04-21 18:35 | 32.81207 | -97.23898 | 38223 ft | 449 kts | 218° |
| 2026-04-21 18:35 | 32.75136 | -97.28751 | 38239 ft | 449 kts | 218° |
| 2026-04-21 18:36 | 32.69944 | -97.32867 | 38240 ft | 449 kts | 218° |
| 2026-04-21 18:36 | 32.64739 | -97.36970 | 38242 ft | 449 kts | 218° |
| 2026-04-21 18:37 | 32.59581 | -97.41025 | 38238 ft | 448 kts | 218° |
| 2026-04-21 18:37 | 32.54374 | -97.45113 | 38252 ft | 448 kts | 218° |
| 2026-04-21 18:38 | 32.49166 | -97.49197 | 38218 ft | 450 kts | 218° |
| 2026-04-21 18:38 | 32.43934 | -97.53296 | 38206 ft | 451 kts | 218° |
| 2026-04-21 18:39 | 32.38698 | -97.57390 | 38200 ft | 450 kts | 218° |
| 2026-04-21 18:39 | 32.33478 | -97.61464 | 38202 ft | 449 kts | 218° |
| 2026-04-21 18:40 | 32.28277 | -97.65520 | 38215 ft | 448 kts | 218° |
| 2026-04-21 18:40 | 32.23960 | -97.68882 | 38214 ft | 447 kts | 218° |
| 2026-04-21 18:41 | 32.17893 | -97.73600 | 38218 ft | 446 kts | 218° |
| 2026-04-21 18:41 | 32.12706 | -97.77630 | 38220 ft | 447 kts | 218° |
| 2026-04-21 18:42 | 32.08389 | -97.80978 | 38229 ft | 447 kts | 218° |
| 2026-04-21 18:42 | 32.03186 | -97.85009 | 38229 ft | 448 kts | 218° |
| 2026-04-21 18:43 | 31.97958 | -97.89055 | 38342 ft | 452 kts | 218° |
| 2026-04-21 18:43 | 31.95329 | -97.91086 | 38685 ft | 451 kts | 218° |
| 2026-04-21 18:43 | 31.92708 | -97.93109 | 39035 ft | 450 kts | 218° |
| 2026-04-21 18:43 | 31.90087 | -97.95131 | 39155 ft | 452 kts | 218° |
| 2026-04-21 18:44 | 31.87454 | -97.97163 | 39200 ft | 452 kts | 218° |
| 2026-04-21 18:44 | 31.82209 | -98.01202 | 39213 ft | 449 kts | 218° |
| 2026-04-21 18:45 | 31.77006 | -98.05204 | 39226 ft | 446 kts | 218° |
| 2026-04-21 18:45 | 31.71827 | -98.09185 | 39215 ft | 444 kts | 218° |
| 2026-04-21 18:46 | 31.66661 | -98.13150 | 39221 ft | 443 kts | 218° |
| 2026-04-21 18:46 | 31.61047 | -98.16315 | 39223 ft | 454 kts | 204° |
| 2026-04-21 18:47 | 31.54824 | -98.17955 | 39220 ft | 465 kts | 193° |
| 2026-04-21 18:47 | 31.48395 | -98.18829 | 39220 ft | 466 kts | 193° |
| 2026-04-21 18:48 | 31.41963 | -98.19765 | 39226 ft | 466 kts | 193° |
| 2026-04-21 18:48 | 31.35517 | -98.20738 | 39221 ft | 467 kts | 193° |
| 2026-04-21 18:49 | 31.29070 | -98.21718 | 39224 ft | 467 kts | 193° |
| 2026-04-21 18:49 | 31.23673 | -98.22536 | 39231 ft | 467 kts | 194° |
| 2026-04-21 18:50 | 31.16188 | -98.23667 | 39228 ft | 467 kts | 194° |
| 2026-04-21 18:50 | 31.09742 | -98.24639 | 39228 ft | 467 kts | 194° |
| 2026-04-21 18:51 | 31.03296 | -98.25609 | 39230 ft | 467 kts | 194° |
| 2026-04-21 18:51 | 30.96858 | -98.26577 | 39226 ft | 466 kts | 194° |
| 2026-04-21 18:52 | 30.90417 | -98.27545 | 39229 ft | 466 kts | 194° |
| 2026-04-21 18:52 | 30.83988 | -98.28510 | 39235 ft | 466 kts | 194° |
| 2026-04-21 18:53 | 30.77546 | -98.29474 | 39238 ft | 466 kts | 194° |
| 2026-04-21 18:53 | 30.71116 | -98.30436 | 39232 ft | 466 kts | 194° |
| 2026-04-21 18:54 | 30.64674 | -98.31399 | 39240 ft | 466 kts | 194° |
| 2026-04-21 18:54 | 30.58245 | -98.32358 | 39232 ft | 466 kts | 194° |
| 2026-04-21 18:55 | 30.52900 | -98.33155 | 39234 ft | 466 kts | 194° |
| 2026-04-21 18:55 | 30.45380 | -98.34274 | 39236 ft | 466 kts | 194° |
| 2026-04-21 18:56 | 30.38941 | -98.35229 | 39230 ft | 466 kts | 194° |
| 2026-04-21 18:56 | 30.32505 | -98.36163 | 39221 ft | 466 kts | 194° |
| 2026-04-21 18:57 | 30.26078 | -98.37091 | 39204 ft | 466 kts | 194° |
| 2026-04-21 18:57 | 30.19668 | -98.38017 | 39195 ft | 466 kts | 194° |
| 2026-04-21 18:58 | 30.13203 | -98.38952 | 39181 ft | 466 kts | 194° |
| 2026-04-21 18:58 | 30.06755 | -98.39889 | 39178 ft | 466 kts | 194° |
| 2026-04-21 18:59 | 30.00368 | -98.40830 | 39181 ft | 466 kts | 195° |
| 2026-04-21 18:59 | 29.93946 | -98.41775 | 39180 ft | 466 kts | 195° |
| 2026-04-21 19:00 | 29.87501 | -98.42721 | 39172 ft | 466 kts | 195° |
| 2026-04-21 19:00 | 29.81076 | -98.43662 | 39177 ft | 465 kts | 195° |
| 2026-04-21 19:01 | 29.74657 | -98.44601 | 39171 ft | 465 kts | 195° |
| 2026-04-21 19:01 | 29.68264 | -98.45535 | 39176 ft | 463 kts | 195° |
| 2026-04-21 19:02 | 29.62068 | -98.47118 | 39038 ft | 448 kts | 206° |
| 2026-04-21 19:02 | 29.59173 | -98.48360 | 38739 ft | 444 kts | 209° |
| 2026-04-21 19:02 | 29.56290 | -98.49680 | 38330 ft | 446 kts | 209° |
| 2026-04-21 19:02 | 29.53417 | -98.51002 | 38189 ft | 445 kts | 209° |
| 2026-04-21 19:03 | 29.50543 | -98.52320 | 38186 ft | 445 kts | 209° |
| 2026-04-21 19:03 | 29.44760 | -98.54952 | 38147 ft | 448 kts | 209° |
| 2026-04-21 19:04 | 29.38969 | -98.57563 | 38146 ft | 449 kts | 209° |
| 2026-04-21 19:04 | 29.33136 | -98.60183 | 38138 ft | 449 kts | 208° |
| 2026-04-21 19:05 | 29.27314 | -98.62793 | 38139 ft | 449 kts | 208° |
| 2026-04-21 19:05 | 29.21500 | -98.65398 | 38146 ft | 448 kts | 208° |
| 2026-04-21 19:06 | 29.15733 | -98.67979 | 38156 ft | 448 kts | 208° |
| 2026-04-21 19:06 | 29.09945 | -98.70568 | 38161 ft | 447 kts | 208° |
| 2026-04-21 19:07 | 29.04151 | -98.73155 | 38167 ft | 446 kts | 208° |
| 2026-04-21 19:07 | 28.98390 | -98.75724 | 38174 ft | 445 kts | 208° |
| 2026-04-21 19:08 | 28.92603 | -98.78304 | 38153 ft | 445 kts | 208° |
| 2026-04-21 19:08 | 28.86844 | -98.80866 | 38157 ft | 445 kts | 208° |
| 2026-04-21 19:09 | 28.81084 | -98.83426 | 38146 ft | 444 kts | 208° |
| 2026-04-21 19:09 | 28.75315 | -98.85988 | 38135 ft | 444 kts | 208° |
| 2026-04-21 19:10 | 28.69554 | -98.88542 | 38136 ft | 444 kts | 208° |
| 2026-04-21 19:10 | 28.63791 | -98.91095 | 38136 ft | 445 kts | 208° |
| 2026-04-21 19:11 | 28.58019 | -98.93648 | 38136 ft | 445 kts | 208° |
| 2026-04-21 19:11 | 28.52250 | -98.96197 | 38137 ft | 445 kts | 208° |
| 2026-04-21 19:12 | 28.47449 | -98.98316 | 38135 ft | 445 kts | 208° |
| 2026-04-21 19:12 | 28.40691 | -99.01295 | 38137 ft | 446 kts | 208° |
| 2026-04-21 19:13 | 28.34915 | -99.03838 | 38138 ft | 446 kts | 208° |
| 2026-04-21 19:13 | 28.29125 | -99.06384 | 38135 ft | 446 kts | 208° |
| 2026-04-21 19:14 | 28.23346 | -99.08923 | 38136 ft | 445 kts | 208° |
| 2026-04-21 19:14 | 28.17575 | -99.11454 | 38133 ft | 445 kts | 208° |
| 2026-04-21 19:15 | 28.11800 | -99.13985 | 38148 ft | 445 kts | 208° |
| 2026-04-21 19:15 | 28.06027 | -99.16513 | 38138 ft | 445 kts | 208° |
| 2026-04-21 19:16 | 28.00241 | -99.19043 | 38128 ft | 445 kts | 208° |
| 2026-04-21 19:16 | 27.94484 | -99.21556 | 38130 ft | 444 kts | 208° |
| 2026-04-21 19:17 | 27.85892 | -99.25303 | 38136 ft | 442 kts | 208° |
| 2026-04-21 19:17 | 27.80159 | -99.27800 | 38131 ft | 442 kts | 208° |
| 2026-04-21 19:18 | 27.74427 | -99.30294 | 38136 ft | 441 kts | 208° |
| 2026-04-21 19:18 | 27.68696 | -99.32785 | 38130 ft | 442 kts | 208° |
| 2026-04-21 19:19 | 27.62960 | -99.35275 | 38135 ft | 442 kts | 208° |
| 2026-04-21 19:19 | 27.57221 | -99.37764 | 38137 ft | 442 kts | 208° |
| 2026-04-21 19:20 | 27.51559 | -99.40389 | 38124 ft | 431 kts | 218° |
| 2026-04-21 19:20 | 27.49270 | -99.42478 | 38145 ft | 419 kts | 232° |
| 2026-04-21 19:20 | 27.47455 | -99.45025 | 38147 ft | 416 kts | 240° |
| 2026-04-21 19:21 | 27.46111 | -99.47895 | 38138 ft | 414 kts | 253° |
| 2026-04-21 19:21 | 27.45258 | -99.51000 | 38153 ft | 416 kts | 253° |
| 2026-04-21 19:21 | 27.44053 | -99.53977 | 38149 ft | 423 kts | 242° |
| 2026-04-21 19:21 | 27.42339 | -99.56699 | 38152 ft | 428 kts | 234° |
| 2026-04-21 19:22 | 27.37871 | -99.61133 | 38156 ft | 433 kts | 219° |
| 2026-04-21 19:22 | 27.32781 | -99.64770 | 37783 ft | 437 kts | 218° |
| 2026-04-21 19:23 | 27.30196 | -99.66615 | 37085 ft | 440 kts | 219° |
| 2026-04-21 19:23 | 27.27638 | -99.68457 | 36568 ft | 434 kts | 219° |
| 2026-04-21 19:23 | 27.25123 | -99.70283 | 36035 ft | 428 kts | 219° |
| 2026-04-21 19:23 | 27.22639 | -99.72099 | 35513 ft | 424 kts | 219° |
| 2026-04-21 19:24 | 27.20176 | -99.73906 | 34993 ft | 420 kts | 219° |
| 2026-04-21 19:24 | 27.17738 | -99.75695 | 34472 ft | 417 kts | 220° |
| 2026-04-21 19:24 | 27.15323 | -99.77468 | 33929 ft | 414 kts | 220° |
| 2026-04-21 19:24 | 27.12924 | -99.79226 | 33365 ft | 411 kts | 220° |
| 2026-04-21 19:25 | 27.10533 | -99.80975 | 32845 ft | 407 kts | 219° |
| 2026-04-21 19:25 | 27.08174 | -99.82698 | 32343 ft | 404 kts | 219° |
| 2026-04-21 19:25 | 27.05828 | -99.84409 | 31855 ft | 401 kts | 219° |
| 2026-04-21 19:25 | 27.03496 | -99.86107 | 31374 ft | 398 kts | 219° |
| 2026-04-21 19:26 | 27.01181 | -99.87794 | 30883 ft | 395 kts | 219° |
| 2026-04-21 19:26 | 26.98886 | -99.89466 | 30418 ft | 393 kts | 219° |
| 2026-04-21 19:26 | 26.96594 | -99.91135 | 29898 ft | 392 kts | 219° |
| 2026-04-21 19:26 | 26.94315 | -99.92795 | 29361 ft | 390 kts | 219° |
| 2026-04-21 19:27 | 26.92049 | -99.94443 | 28864 ft | 387 kts | 219° |
| 2026-04-21 19:27 | 26.89801 | -99.96079 | 28371 ft | 385 kts | 219° |
| 2026-04-21 19:27 | 26.88316 | -99.97158 | 28064 ft | 383 kts | 219° |
| 2026-04-21 19:27 | 26.85341 | -99.99320 | 27449 ft | 380 kts | 219° |
| 2026-04-21 19:28 | 26.83879 | -100.00382 | 27137 ft | 378 kts | 219° |
| 2026-04-21 19:28 | 26.81679 | -100.01980 | 26686 ft | 376 kts | 219° |
| 2026-04-21 19:28 | 26.79490 | -100.03570 | 26233 ft | 374 kts | 219° |
| 2026-04-21 19:28 | 26.77317 | -100.05147 | 25786 ft | 372 kts | 219° |
| 2026-04-21 19:29 | 26.75151 | -100.06717 | 25349 ft | 370 kts | 219° |
| 2026-04-21 19:29 | 26.72991 | -100.08283 | 24894 ft | 369 kts | 219° |
| 2026-04-21 19:29 | 26.70843 | -100.09841 | 24480 ft | 368 kts | 219° |
| 2026-04-21 19:29 | 26.68702 | -100.11394 | 24021 ft | 367 kts | 219° |
| 2026-04-21 19:30 | 26.66564 | -100.12945 | 23566 ft | 366 kts | 219° |
| 2026-04-21 19:30 | 26.64432 | -100.14491 | 23078 ft | 364 kts | 219° |
| 2026-04-21 19:30 | 26.62317 | -100.16023 | 22622 ft | 362 kts | 218° |
| 2026-04-21 19:30 | 26.60210 | -100.17548 | 22221 ft | 358 kts | 218° |
| 2026-04-21 19:31 | 26.58103 | -100.19037 | 22110 ft | 361 kts | 213° |
| 2026-04-21 19:31 | 26.55676 | -100.19934 | 22127 ft | 377 kts | 193° |
| 2026-04-21 19:31 | 26.53028 | -100.19870 | 22127 ft | 389 kts | 175° |
| 2026-04-21 19:31 | 26.50430 | -100.18903 | 22031 ft | 400 kts | 156° |
| 2026-04-21 19:32 | 26.48136 | -100.17145 | 21606 ft | 400 kts | 148° |
| 2026-04-21 19:32 | 26.45930 | -100.15254 | 21182 ft | 399 kts | 147° |
| 2026-04-21 19:32 | 26.43743 | -100.13365 | 20746 ft | 397 kts | 147° |
| 2026-04-21 19:32 | 26.41550 | -100.11500 | 20328 ft | 394 kts | 147° |
| 2026-04-21 19:33 | 26.39369 | -100.09676 | 19935 ft | 390 kts | 148° |
| 2026-04-21 19:33 | 26.37199 | -100.07883 | 19543 ft | 387 kts | 148° |
| 2026-04-21 19:33 | 26.35036 | -100.06105 | 19168 ft | 384 kts | 147° |
| 2026-04-21 19:33 | 26.32896 | -100.04349 | 18803 ft | 381 kts | 147° |
| 2026-04-21 19:34 | 26.30767 | -100.02604 | 18434 ft | 378 kts | 147° |
| 2026-04-21 19:34 | 26.28657 | -100.00875 | 17992 ft | 376 kts | 147° |
| 2026-04-21 19:34 | 26.26560 | -99.99157 | 17545 ft | 373 kts | 147° |
| 2026-04-21 19:34 | 26.24482 | -99.97457 | 17146 ft | 369 kts | 147° |
| 2026-04-21 19:35 | 26.22420 | -99.95768 | 16998 ft | 370 kts | 147° |
| 2026-04-21 19:35 | 26.18256 | -99.92369 | 16988 ft | 369 kts | 147° |
| 2026-04-21 19:35 | 26.16189 | -99.90681 | 16978 ft | 367 kts | 147° |
| 2026-04-21 19:36 | 26.14129 | -99.88995 | 16974 ft | 367 kts | 147° |
| 2026-04-21 19:36 | 26.12072 | -99.87314 | 16979 ft | 367 kts | 147° |
| 2026-04-21 19:36 | 26.10010 | -99.85630 | 16973 ft | 367 kts | 147° |
| 2026-04-21 19:36 | 26.07949 | -99.83948 | 16975 ft | 367 kts | 147° |
| 2026-04-21 19:37 | 26.05898 | -99.82279 | 16974 ft | 367 kts | 147° |
| 2026-04-21 19:37 | 26.03833 | -99.80597 | 16975 ft | 367 kts | 147° |
| 2026-04-21 19:37 | 26.01772 | -99.78918 | 16977 ft | 367 kts | 147° |
| 2026-04-21 19:37 | 25.99709 | -99.77239 | 16977 ft | 368 kts | 147° |
| 2026-04-21 19:38 | 25.97649 | -99.75560 | 16984 ft | 367 kts | 147° |
| 2026-04-21 19:38 | 25.95585 | -99.73879 | 16985 ft | 367 kts | 147° |
| 2026-04-21 19:38 | 25.93523 | -99.72202 | 16977 ft | 367 kts | 147° |
| 2026-04-21 19:38 | 25.91462 | -99.70527 | 16977 ft | 367 kts | 147° |
| 2026-04-21 19:39 | 25.89390 | -99.68878 | 16982 ft | 361 kts | 152° |
| 2026-04-21 19:39 | 25.87091 | -99.67880 | 16981 ft | 352 kts | 175° |
| 2026-04-21 19:39 | 25.84684 | -99.67888 | 16987 ft | 345 kts | 193° |
| 2026-04-21 19:39 | 25.82406 | -99.68646 | 16986 ft | 340 kts | 210° |
| 2026-04-21 19:40 | 25.80617 | -99.70222 | 16972 ft | 322 kts | 237° |
| 2026-04-21 19:40 | 25.79828 | -99.72450 | 16964 ft | 306 kts | 266° |
| 2026-04-21 19:40 | 25.80060 | -99.74776 | 16989 ft | 304 kts | 283° |
| 2026-04-21 19:40 | 25.80629 | -99.77031 | 16988 ft | 304 kts | 287° |
| 2026-04-21 19:41 | 25.81149 | -99.78461 | 16977 ft | 305 kts | 295° |
| 2026-04-21 19:41 | 25.82095 | -99.80262 | 16975 ft | 305 kts | 301° |
| 2026-04-21 19:41 | 25.83221 | -99.82099 | 16750 ft | 303 kts | 302° |
| 2026-04-21 19:42 | 25.84404 | -99.84031 | 16428 ft | 302 kts | 301° |
| 2026-04-21 19:42 | 25.85542 | -99.85952 | 16052 ft | 301 kts | 301° |
| 2026-04-21 19:42 | 25.86687 | -99.87915 | 15650 ft | 293 kts | 300° |
| 2026-04-21 19:42 | 25.87761 | -99.89780 | 14864 ft | 291 kts | 300° |
| 2026-04-21 19:43 | 25.88862 | -99.91704 | 14404 ft | 295 kts | 300° |
| 2026-04-21 19:43 | 25.89944 | -99.93595 | 14225 ft | 286 kts | 300° |
| 2026-04-21 19:43 | 25.90996 | -99.95433 | 14029 ft | 278 kts | 300° |
| 2026-04-21 19:43 | 25.92009 | -99.97203 | 13998 ft | 264 kts | 300° |
| 2026-04-21 19:44 | 25.92978 | -99.98900 | 13987 ft | 259 kts | 300° |
| 2026-04-21 19:44 | 25.93939 | -100.00583 | 13990 ft | 258 kts | 300° |
| 2026-04-21 19:44 | 25.94903 | -100.02270 | 13819 ft | 258 kts | 300° |
| 2026-04-21 19:44 | 25.95849 | -100.03926 | 13340 ft | 251 kts | 300° |
| 2026-04-21 19:45 | 25.96776 | -100.05550 | 12839 ft | 244 kts | 300° |
| 2026-04-21 19:45 | 25.97681 | -100.07136 | 12414 ft | 244 kts | 300° |
| 2026-04-21 19:45 | 25.98593 | -100.08737 | 12018 ft | 247 kts | 300° |
| 2026-04-21 19:45 | 25.99517 | -100.10358 | 11550 ft | 251 kts | 301° |
| 2026-04-21 19:46 | 26.00458 | -100.12010 | 11065 ft | 255 kts | 301° |
| 2026-04-21 19:46 | 26.01412 | -100.13684 | 10644 ft | 257 kts | 301° |
| 2026-04-21 19:46 | 26.02370 | -100.15365 | 10267 ft | 258 kts | 301° |
| 2026-04-21 19:46 | 26.03330 | -100.17051 | 9854 ft | 259 kts | 300° |
| 2026-04-21 19:47 | 26.04175 | -100.18779 | 9444 ft | 251 kts | 284° |
| 2026-04-21 19:47 | 26.04254 | -100.20665 | 9151 ft | 243 kts | 257° |
| 2026-04-21 19:47 | 26.03625 | -100.22329 | 8716 ft | 230 kts | 238° |
| 2026-04-21 19:47 | 26.02579 | -100.23623 | 8249 ft | 222 kts | 218° |
| 2026-04-21 19:48 | 26.01276 | -100.24552 | 7907 ft | 226 kts | 213° |
| 2026-04-21 19:48 | 25.99912 | -100.25448 | 7504 ft | 228 kts | 213° |
| 2026-04-21 19:48 | 25.98540 | -100.26351 | 7122 ft | 230 kts | 213° |
| 2026-04-21 19:48 | 25.97167 | -100.27252 | 6807 ft | 229 kts | 213° |
| 2026-04-21 19:49 | 25.95808 | -100.28156 | 6517 ft | 226 kts | 214° |
| 2026-04-21 19:49 | 25.94468 | -100.29051 | 6220 ft | 223 kts | 213° |
| 2026-04-21 19:49 | 25.93150 | -100.29934 | 5919 ft | 219 kts | 213° |
| 2026-04-21 19:49 | 25.91858 | -100.30799 | 5655 ft | 213 kts | 210° |
| 2026-04-21 19:50 | 25.90962 | -100.31198 | 5449 ft | 209 kts | 188° |
| 2026-04-21 19:50 | 25.89182 | -100.30732 | 5198 ft | 198 kts | 146° |
| 2026-04-21 19:50 | 25.88193 | -100.29632 | 4910 ft | 206 kts | 124° |
| 2026-04-21 19:50 | 25.87452 | -100.28306 | 4817 ft | 196 kts | 121° |
| 2026-04-21 19:51 | 25.86761 | -100.27014 | 4819 ft | 196 kts | 121° |
| 2026-04-21 19:51 | 25.86063 | -100.25693 | 4640 ft | 202 kts | 119° |
| 2026-04-21 19:51 | 25.85421 | -100.24306 | 4303 ft | 202 kts | 115° |
| 2026-04-21 19:51 | 25.84866 | -100.22880 | 3937 ft | 198 kts | 116° |
| 2026-04-21 19:52 | 25.84284 | -100.21571 | 3680 ft | 181 kts | 115° |
| 2026-04-21 19:52 | 25.83710 | -100.20353 | 3243 ft | 176 kts | 123° |
| 2026-04-21 19:52 | 25.83009 | -100.19313 | 2978 ft | 165 kts | 128° |
| 2026-04-21 19:52 | 25.82276 | -100.18278 | 2820 ft | 176 kts | 127° |
| 2026-04-21 19:53 | 25.81544 | -100.17165 | 2510 ft | 178 kts | 126° |
| 2026-04-21 19:53 | 25.80846 | -100.16092 | 2302 ft | 166 kts | 127° |
| 2026-04-21 19:53 | 25.80176 | -100.15036 | 2160 ft | 171 kts | 123° |
| 2026-04-21 19:53 | 25.79556 | -100.13874 | 2000 ft | 178 kts | 120° |
| 2026-04-21 19:54 | 25.78928 | -100.12704 | 2359 ft | 172 kts | 121° |
| 2026-04-21 19:54 | 25.78333 | -100.11599 | 2618 ft | 163 kts | 122° |
| 2026-04-21 19:54 | 25.77760 | -100.10542 | 2740 ft | 157 kts | 123° |
| 2026-04-21 19:54 | 25.77190 | -100.09499 | 2867 ft | 159 kts | 123° |
| 2026-04-21 19:55 | 25.76605 | -100.08433 | 3030 ft | 166 kts | 123° |
| 2026-04-21 19:55 | 25.76010 | -100.07346 | 3368 ft | 165 kts | 123° |
| 2026-04-21 19:55 | 25.75407 | -100.06250 | 3585 ft | 171 kts | 123° |
| 2026-04-21 19:55 | 25.74748 | -100.05055 | 3692 ft | 202 kts | 122° |
| 2026-04-21 19:56 | 25.73928 | -100.03570 | 3716 ft | 245 kts | 122° |
| 2026-04-21 19:56 | 25.73044 | -100.01963 | 3701 ft | 248 kts | 122° |
| 2026-04-21 19:56 | 25.72120 | -100.00298 | 3663 ft | 251 kts | 125° |
| 2026-04-21 19:56 | 25.71250 | -99.98650 | 3689 ft | 252 kts | 109° |
| 2026-04-21 19:57 | 25.71121 | -99.96711 | 3693 ft | 261 kts | 81° |
| 2026-04-21 19:57 | 25.71880 | -99.94886 | 3694 ft | 259 kts | 52° |
| 2026-04-21 19:57 | 25.73186 | -99.93575 | 3698 ft | 257 kts | 40° |
| 2026-04-21 19:57 | 25.74598 | -99.92351 | 3699 ft | 257 kts | 40° |
| 2026-04-21 19:58 | 25.76003 | -99.91152 | 3694 ft | 253 kts | 39° |
| 2026-04-21 19:58 | 25.77507 | -99.90136 | 3686 ft | 253 kts | 19° |
| 2026-04-21 19:58 | 25.79246 | -99.89993 | 3691 ft | 261 kts | 349° |
| 2026-04-21 19:58 | 25.80887 | -99.90820 | 3695 ft | 259 kts | 320° |
| 2026-04-21 19:59 | 25.82142 | -99.92212 | 3703 ft | 256 kts | 311° |
| 2026-04-21 19:59 | 25.83312 | -99.93715 | 3696 ft | 258 kts | 309° |
| 2026-04-21 19:59 | 25.84483 | -99.95251 | 3710 ft | 262 kts | 309° |
| 2026-04-21 19:59 | 25.85650 | -99.96789 | 3697 ft | 258 kts | 310° |
| 2026-04-21 20:00 | 25.86793 | -99.98303 | 3696 ft | 255 kts | 309° |
| 2026-04-21 20:00 | 25.87911 | -99.99818 | 3700 ft | 250 kts | 304° |
| 2026-04-21 20:00 | 25.88765 | -100.01479 | 3703 ft | 246 kts | 295° |
| 2026-04-21 20:00 | 25.89516 | -100.03206 | 3696 ft | 251 kts | 294° |
| 2026-04-21 20:01 | 25.90270 | -100.04971 | 3683 ft | 252 kts | 295° |
| 2026-04-21 20:01 | 25.91023 | -100.06732 | 3697 ft | 253 kts | 294° |
| 2026-04-21 20:01 | 25.91777 | -100.08510 | 3704 ft | 255 kts | 295° |
| 2026-04-21 20:01 | 25.92539 | -100.10306 | 3711 ft | 259 kts | 294° |
| 2026-04-21 20:02 | 25.93058 | -100.11534 | 3707 ft | 262 kts | 294° |
| 2026-04-21 20:02 | 25.94105 | -100.14002 | 3705 ft | 266 kts | 294° |
| 2026-04-21 20:02 | 25.94882 | -100.15846 | 3687 ft | 260 kts | 294° |
| 2026-04-21 20:02 | 25.95652 | -100.17671 | 3693 ft | 265 kts | 294° |
| 2026-04-21 20:03 | 25.96441 | -100.19553 | 3703 ft | 269 kts | 294° |
| 2026-04-21 20:03 | 25.97220 | -100.21413 | 3686 ft | 262 kts | 295° |
| 2026-04-21 20:03 | 25.97989 | -100.23257 | 3703 ft | 264 kts | 292° |
| 2026-04-21 20:03 | 25.98587 | -100.25225 | 3702 ft | 270 kts | 285° |
| 2026-04-21 20:04 | 25.98768 | -100.27236 | 3692 ft | 261 kts | 259° |
| 2026-04-21 20:04 | 25.98100 | -100.29118 | 3713 ft | 267 kts | 237° |
| 2026-04-21 20:04 | 25.97046 | -100.30802 | 3669 ft | 260 kts | 224° |
| 2026-04-21 20:04 | 25.95532 | -100.31862 | 3710 ft | 264 kts | 195° |
| 2026-04-21 20:05 | 25.93702 | -100.31997 | 3699 ft | 266 kts | 167° |
| 2026-04-21 20:05 | 25.91953 | -100.31326 | 3703 ft | 267 kts | 156° |
| 2026-04-21 20:05 | 25.90264 | -100.30494 | 3711 ft | 263 kts | 154° |
| 2026-04-21 20:05 | 25.88610 | -100.29672 | 3680 ft | 252 kts | 155° |
| 2026-04-21 20:06 | 25.87133 | -100.28897 | 3665 ft | 217 kts | 145° |
| 2026-04-21 20:06 | 25.86301 | -100.27729 | 3652 ft | 182 kts | 104° |
| 2026-04-21 20:06 | 25.85921 | -100.26363 | 3697 ft | 187 kts | 113° |
| 2026-04-21 20:06 | 25.85359 | -100.25081 | 3699 ft | 182 kts | 118° |
| 2026-04-21 20:07 | 25.84783 | -100.23885 | 3665 ft | 169 kts | 117° |
| 2026-04-21 20:07 | 25.84245 | -100.22756 | 3693 ft | 163 kts | 118° |
| 2026-04-21 20:07 | 25.83879 | -100.22027 | 3698 ft | 164 kts | 119° |
| 2026-04-21 20:07 | 25.83091 | -100.20449 | 3320 ft | 177 kts | 120° |
| 2026-04-21 20:08 | 25.82490 | -100.19271 | 3218 ft | 175 kts | 121° |
| 2026-04-21 20:08 | 25.81872 | -100.18102 | 3184 ft | 176 kts | 122° |
| 2026-04-21 20:08 | 25.81253 | -100.16940 | 2905 ft | 172 kts | 121° |
| 2026-04-21 20:08 | 25.80683 | -100.15832 | 2557 ft | 160 kts | 122° |
| 2026-04-21 20:09 | 25.80104 | -100.14826 | 2196 ft | 149 kts | 122° |
| 2026-04-21 20:09 | 25.79584 | -100.13890 | 1892 ft | 136 kts | 120° |
| 2026-04-21 20:09 | 25.79110 | -100.13000 | 1686 ft | 137 kts | 118° |
| 2026-04-21 20:09 | 25.78607 | -100.12064 | 1450 ft | 144 kts | 120° |
| 2026-04-21 20:10 | 25.78087 | -100.11119 | 1291 ft | 137 kts | 119° |
| 2026-04-21 20:10 | 25.77650 | -100.10324 | 1282 ft | 97 kts | 121° |
| 2026-04-21 20:10 | 25.77399 | -100.09867 | 1279 ft | 45 kts | 121° |
| 2026-04-21 20:10 | 25.77301 | -100.09702 | 1273 ft | 13 kts | 139° |
| 2026-04-21 20:11 | 25.77216 | -100.09722 | 1273 ft | 14 kts | 209° |
| 2026-04-21 20:11 | 25.77149 | -100.09786 | 1277 ft | 13 kts | 258° |
| 2026-04-21 20:11 | 25.77182 | -100.09879 | 1275 ft | 13 kts | 299° |
| 2026-04-21 20:11 | 25.77214 | -100.09937 | 1281 ft | 13 kts | 302° |
| 2026-04-21 20:12 | 25.77284 | -100.10062 | 1279 ft | 17 kts | 301° |
| 2026-04-21 20:12 | 25.77331 | -100.10146 | 1278 ft | 22 kts | 301° |
| 2026-04-21 20:12 | 25.77421 | -100.10308 | 1280 ft | 26 kts | 301° |
| 2026-04-21 20:12 | 25.77513 | -100.10477 | 1284 ft | 25 kts | 301° |
| 2026-04-21 20:13 | 25.77600 | -100.10640 | 1286 ft | 25 kts | 301° |
| 2026-04-21 20:13 | 25.77690 | -100.10801 | 1290 ft | 25 kts | 301° |
| 2026-04-21 20:13 | 25.77778 | -100.10963 | 1288 ft | 25 kts | 301° |
| 2026-04-21 20:13 | 25.77867 | -100.11125 | 1291 ft | 25 kts | 301° |
| 2026-04-21 20:14 | 25.77956 | -100.11286 | 1290 ft | 25 kts | 301° |
| 2026-04-21 20:14 | 25.78026 | -100.11413 | 1291 ft | 11 kts | 301° |
| 2026-04-21 20:14 | 25.78049 | -100.11472 | 1288 ft | 8 kts | 261° |
| 2026-04-21 20:14 | 25.78005 | -100.11515 | 1287 ft | 9 kts | 214° |
| 2026-04-21 20:15 | 25.77955 | -100.11556 | 1290 ft | 7 kts | 240° |
| 2026-04-21 20:15 | 25.77961 | -100.11602 | 1289 ft | 3 kts | 298° |
| 2026-04-21 20:15 | 25.77965 | -100.11610 | 1289 ft | 0 kts | 298° |
| 2026-04-21 20:18 | 25.78169 | -100.12150 | 1290 ft | 0 kts | 211° |